sensor_id;sensor_type;location;lat;lon;timestamp;temperature;humidity
26342;DHT22;14054;50.108;8.640;2022-11-20T00:00:24;2.50;99.90
26342;DHT22;14054;50.108;8.640;2022-11-20T00:02:49;2.50;99.90
26342;DHT22;14054;50.108;8.640;2022-11-20T00:05:15;2.50;99.90
26342;DHT22;14054;50.108;8.640;2022-11-20T00:07:40;2.50;99.90
26342;DHT22;14054;50.108;8.640;2022-11-20T00:10:06;2.40;99.90
26342;DHT22;14054;50.108;8.640;2022-11-20T00:12:32;2.30;99.90
26342;DHT22;14054;50.108;8.640;2022-11-20T00:14:59;2.30;99.90
26342;DHT22;14054;50.108;8.640;2022-11-20T00:17:24;2.40;99.90
26342;DHT22;14054;50.108;8.640;2022-11-20T00:19:49;2.40;99.90
26342;DHT22;14054;50.108;8.640;2022-11-20T00:22:15;2.40;99.90
26342;DHT22;14054;50.108;8.640;2022-11-20T00:24:40;2.50;99.90
26342;DHT22;14054;50.108;8.640;2022-11-20T00:27:06;2.50;99.90
26342;DHT22;14054;50.108;8.640;2022-11-20T00:29:31;2.50;99.90
26342;DHT22;14054;50.108;8.640;2022-11-20T00:31:57;2.50;99.90
26342;DHT22;14054;50.108;8.640;2022-11-20T00:34:22;2.60;99.90
26342;DHT22;14054;50.108;8.640;2022-11-20T00:36:48;2.60;99.90
26342;DHT22;14054;50.108;8.640;2022-11-20T00:39:13;2.60;99.90
26342;DHT22;14054;50.108;8.640;2022-11-20T00:41:39;2.60;99.90
26342;DHT22;14054;50.108;8.640;2022-11-20T00:44:04;2.60;99.90
26342;DHT22;14054;50.108;8.640;2022-11-20T00:46:30;2.60;99.90
26342;DHT22;14054;50.108;8.640;2022-11-20T00:48:55;2.60;99.90
26342;DHT22;14054;50.108;8.640;2022-11-20T00:51:23;2.60;99.90
26342;DHT22;14054;50.108;8.640;2022-11-20T00:53:49;2.50;99.90
26342;DHT22;14054;50.108;8.640;2022-11-20T00:56:17;2.50;99.90
26342;DHT22;14054;50.108;8.640;2022-11-20T00:58:45;2.40;99.90
26342;DHT22;14054;50.108;8.640;2022-11-20T01:01:16;2.40;99.90
26342;DHT22;14054;50.108;8.640;2022-11-20T01:03:44;2.30;99.90
26342;DHT22;14054;50.108;8.640;2022-11-20T01:06:12;2.40;99.90
26342;DHT22;14054;50.108;8.640;2022-11-20T01:08:38;2.40;99.90
26342;DHT22;14054;50.108;8.640;2022-11-20T01:11:06;2.40;99.90
26342;DHT22;14054;50.108;8.640;2022-11-20T01:13:33;2.40;99.90
26342;DHT22;14054;50.108;8.640;2022-11-20T01:16:15;2.30;99.90
26342;DHT22;14054;50.108;8.640;2022-11-20T01:18:43;2.30;99.90
26342;DHT22;14054;50.108;8.640;2022-11-20T01:21:12;2.40;99.90
26342;DHT22;14054;50.108;8.640;2022-11-20T01:23:40;2.30;99.90
26342;DHT22;14054;50.108;8.640;2022-11-20T01:26:08;2.30;99.90
26342;DHT22;14054;50.108;8.640;2022-11-20T01:28:34;2.30;99.90
26342;DHT22;14054;50.108;8.640;2022-11-20T01:31:00;2.30;99.90
26342;DHT22;14054;50.108;8.640;2022-11-20T01:33:27;2.20;99.90
26342;DHT22;14054;50.108;8.640;2022-11-20T01:35:53;2.20;99.90
26342;DHT22;14054;50.108;8.640;2022-11-20T01:38:19;2.10;99.90
26342;DHT22;14054;50.108;8.640;2022-11-20T01:40:53;2.10;99.90
26342;DHT22;14054;50.108;8.640;2022-11-20T01:43:20;2.10;99.90
26342;DHT22;14054;50.108;8.640;2022-11-20T01:49:03;2.00;99.90
26342;DHT22;14054;50.108;8.640;2022-11-20T01:51:41;2.00;99.90
26342;DHT22;14054;50.108;8.640;2022-11-20T01:54:13;2.00;99.90
26342;DHT22;14054;50.108;8.640;2022-11-20T01:56:42;2.00;99.90
26342;DHT22;14054;50.108;8.640;2022-11-20T01:59:10;2.00;99.90
26342;DHT22;14054;50.108;8.640;2022-11-20T02:01:37;2.10;99.90
26342;DHT22;14054;50.108;8.640;2022-11-20T02:04:04;2.10;99.90
26342;DHT22;14054;50.108;8.640;2022-11-20T02:06:44;2.10;99.90
26342;DHT22;14054;50.108;8.640;2022-11-20T02:09:11;2.00;99.90
26342;DHT22;14054;50.108;8.640;2022-11-20T02:11:37;1.90;99.90
26342;DHT22;14054;50.108;8.640;2022-11-20T02:14:02;1.90;99.90
26342;DHT22;14054;50.108;8.640;2022-11-20T02:16:31;1.90;99.90
26342;DHT22;14054;50.108;8.640;2022-11-20T02:19:00;2.00;99.90
26342;DHT22;14054;50.108;8.640;2022-11-20T02:21:40;2.00;99.90
26342;DHT22;14054;50.108;8.640;2022-11-20T02:24:10;1.90;99.90
26342;DHT22;14054;50.108;8.640;2022-11-20T02:27:08;1.90;99.90
26342;DHT22;14054;50.108;8.640;2022-11-20T02:29:39;1.80;99.90
26342;DHT22;14054;50.108;8.640;2022-11-20T02:32:06;1.80;99.90
26342;DHT22;14054;50.108;8.640;2022-11-20T02:34:32;1.80;99.90
26342;DHT22;14054;50.108;8.640;2022-11-20T02:36:58;1.80;99.90
26342;DHT22;14054;50.108;8.640;2022-11-20T02:39:25;1.80;99.90
26342;DHT22;14054;50.108;8.640;2022-11-20T02:41:54;1.80;99.90
26342;DHT22;14054;50.108;8.640;2022-11-20T02:44:20;1.90;99.90
26342;DHT22;14054;50.108;8.640;2022-11-20T02:46:46;1.90;99.90
26342;DHT22;14054;50.108;8.640;2022-11-20T02:49:11;2.00;99.90
26342;DHT22;14054;50.108;8.640;2022-11-20T02:51:37;1.90;99.90
26342;DHT22;14054;50.108;8.640;2022-11-20T02:54:03;1.90;99.90
26342;DHT22;14054;50.108;8.640;2022-11-20T02:56:29;2.00;99.90
26342;DHT22;14054;50.108;8.640;2022-11-20T02:58:54;1.90;99.90
26342;DHT22;14054;50.108;8.640;2022-11-20T03:01:20;1.80;99.90
26342;DHT22;14054;50.108;8.640;2022-11-20T03:03:46;1.80;99.90
26342;DHT22;14054;50.108;8.640;2022-11-20T03:06:14;1.80;99.90
26342;DHT22;14054;50.108;8.640;2022-11-20T03:08:39;1.80;99.90
26342;DHT22;14054;50.108;8.640;2022-11-20T03:11:06;1.90;99.90
26342;DHT22;14054;50.108;8.640;2022-11-20T03:13:33;2.00;99.90
26342;DHT22;14054;50.108;8.640;2022-11-20T03:16:14;2.00;99.90
26342;DHT22;14054;50.108;8.640;2022-11-20T03:18:41;2.00;99.90
26342;DHT22;14054;50.108;8.640;2022-11-20T03:21:08;1.90;99.90
26342;DHT22;14054;50.108;8.640;2022-11-20T03:23:34;1.90;99.90
26342;DHT22;14054;50.108;8.640;2022-11-20T03:26:17;2.00;99.90
26342;DHT22;14054;50.108;8.640;2022-11-20T03:28:52;1.80;99.90
26342;DHT22;14054;50.108;8.640;2022-11-20T03:31:20;1.70;99.90
26342;DHT22;14054;50.108;8.640;2022-11-20T03:33:46;1.70;99.90
26342;DHT22;14054;50.108;8.640;2022-11-20T03:36:13;1.70;99.90
26342;DHT22;14054;50.108;8.640;2022-11-20T03:38:39;1.60;99.90
26342;DHT22;14054;50.108;8.640;2022-11-20T03:41:08;1.70;99.90
26342;DHT22;14054;50.108;8.640;2022-11-20T03:43:34;1.70;99.90
26342;DHT22;14054;50.108;8.640;2022-11-20T03:46:00;1.70;99.90
26342;DHT22;14054;50.108;8.640;2022-11-20T03:48:26;1.70;99.90
26342;DHT22;14054;50.108;8.640;2022-11-20T03:50:52;1.70;99.90
26342;DHT22;14054;50.108;8.640;2022-11-20T03:53:19;1.70;99.90
26342;DHT22;14054;50.108;8.640;2022-11-20T03:55:49;1.80;99.90
26342;DHT22;14054;50.108;8.640;2022-11-20T03:58:15;1.80;99.90
26342;DHT22;14054;50.108;8.640;2022-11-20T04:00:40;1.80;99.90
26342;DHT22;14054;50.108;8.640;2022-11-20T04:03:06;1.80;99.90
26342;DHT22;14054;50.108;8.640;2022-11-20T04:05:33;1.80;99.90
26342;DHT22;14054;50.108;8.640;2022-11-20T04:07:59;1.80;99.90
26342;DHT22;14054;50.108;8.640;2022-11-20T04:10:25;1.80;99.90
26342;DHT22;14054;50.108;8.640;2022-11-20T04:12:50;1.90;99.90
26342;DHT22;14054;50.108;8.640;2022-11-20T04:15:16;1.80;99.90
26342;DHT22;14054;50.108;8.640;2022-11-20T04:17:41;1.80;99.90
26342;DHT22;14054;50.108;8.640;2022-11-20T04:20:07;1.70;99.90
26342;DHT22;14054;50.108;8.640;2022-11-20T04:22:33;1.80;99.90
26342;DHT22;14054;50.108;8.640;2022-11-20T04:24:58;1.80;99.90
26342;DHT22;14054;50.108;8.640;2022-11-20T04:27:24;1.90;99.90
26342;DHT22;14054;50.108;8.640;2022-11-20T04:29:49;1.90;99.90
26342;DHT22;14054;50.108;8.640;2022-11-20T04:32:15;1.80;99.90
26342;DHT22;14054;50.108;8.640;2022-11-20T04:34:40;1.80;99.90
26342;DHT22;14054;50.108;8.640;2022-11-20T04:37:05;1.80;99.90
26342;DHT22;14054;50.108;8.640;2022-11-20T04:39:31;1.80;99.90
26342;DHT22;14054;50.108;8.640;2022-11-20T04:41:56;1.80;99.90
26342;DHT22;14054;50.108;8.640;2022-11-20T04:44:41;1.90;99.90
26342;DHT22;14054;50.108;8.640;2022-11-20T04:47:06;1.90;99.90
26342;DHT22;14054;50.108;8.640;2022-11-20T04:49:32;1.90;99.90
26342;DHT22;14054;50.108;8.640;2022-11-20T04:51:58;1.90;99.90
26342;DHT22;14054;50.108;8.640;2022-11-20T04:54:23;1.90;99.90
26342;DHT22;14054;50.108;8.640;2022-11-20T04:56:49;1.90;99.90
26342;DHT22;14054;50.108;8.640;2022-11-20T04:59:15;1.90;99.90
26342;DHT22;14054;50.108;8.640;2022-11-20T05:01:40;2.00;99.90
26342;DHT22;14054;50.108;8.640;2022-11-20T05:04:06;2.00;99.90
26342;DHT22;14054;50.108;8.640;2022-11-20T05:06:31;2.00;99.90
26342;DHT22;14054;50.108;8.640;2022-11-20T05:08:57;2.00;99.90
26342;DHT22;14054;50.108;8.640;2022-11-20T05:11:23;1.90;99.90
26342;DHT22;14054;50.108;8.640;2022-11-20T05:13:50;1.90;99.90
26342;DHT22;14054;50.108;8.640;2022-11-20T05:16:21;2.00;99.90
26342;DHT22;14054;50.108;8.640;2022-11-20T05:18:47;1.90;99.90
26342;DHT22;14054;50.108;8.640;2022-11-20T05:21:13;2.00;99.90
26342;DHT22;14054;50.108;8.640;2022-11-20T05:23:39;2.10;99.90
26342;DHT22;14054;50.108;8.640;2022-11-20T05:26:06;2.10;99.90
26342;DHT22;14054;50.108;8.640;2022-11-20T05:28:33;2.10;99.90
26342;DHT22;14054;50.108;8.640;2022-11-20T05:31:25;2.10;99.90
26342;DHT22;14054;50.108;8.640;2022-11-20T05:33:51;2.10;99.90
26342;DHT22;14054;50.108;8.640;2022-11-20T05:36:17;2.10;99.90
26342;DHT22;14054;50.108;8.640;2022-11-20T05:38:43;2.10;99.90
26342;DHT22;14054;50.108;8.640;2022-11-20T05:41:17;2.10;99.90
26342;DHT22;14054;50.108;8.640;2022-11-20T05:43:44;2.10;99.90
26342;DHT22;14054;50.108;8.640;2022-11-20T05:46:13;2.00;99.90
26342;DHT22;14054;50.108;8.640;2022-11-20T05:48:40;2.10;99.90
26342;DHT22;14054;50.108;8.640;2022-11-20T05:51:08;2.10;99.90
26342;DHT22;14054;50.108;8.640;2022-11-20T05:53:34;2.00;99.90
26342;DHT22;14054;50.108;8.640;2022-11-20T05:56:06;2.00;99.90
26342;DHT22;14054;50.108;8.640;2022-11-20T05:58:32;2.00;99.90
26342;DHT22;14054;50.108;8.640;2022-11-20T06:01:09;2.00;99.90
26342;DHT22;14054;50.108;8.640;2022-11-20T06:03:35;2.00;99.90
26342;DHT22;14054;50.108;8.640;2022-11-20T06:06:01;1.90;99.90
26342;DHT22;14054;50.108;8.640;2022-11-20T06:08:27;1.90;99.90
26342;DHT22;14054;50.108;8.640;2022-11-20T06:10:52;1.90;99.90
26342;DHT22;14054;50.108;8.640;2022-11-20T06:13:18;1.90;99.90
26342;DHT22;14054;50.108;8.640;2022-11-20T06:15:49;1.90;99.90
26342;DHT22;14054;50.108;8.640;2022-11-20T06:18:15;1.90;99.90
26342;DHT22;14054;50.108;8.640;2022-11-20T06:20:40;1.80;99.90
26342;DHT22;14054;50.108;8.640;2022-11-20T06:23:05;1.80;99.90
26342;DHT22;14054;50.108;8.640;2022-11-20T06:25:31;1.80;99.90
26342;DHT22;14054;50.108;8.640;2022-11-20T06:27:56;1.80;99.90
26342;DHT22;14054;50.108;8.640;2022-11-20T06:30:22;1.80;99.90
26342;DHT22;14054;50.108;8.640;2022-11-20T06:32:47;1.90;99.90
26342;DHT22;14054;50.108;8.640;2022-11-20T06:35:13;1.90;99.90
26342;DHT22;14054;50.108;8.640;2022-11-20T06:37:38;1.90;99.90
26342;DHT22;14054;50.108;8.640;2022-11-20T06:40:04;1.80;99.90
26342;DHT22;14054;50.108;8.640;2022-11-20T06:42:30;1.90;99.90
26342;DHT22;14054;50.108;8.640;2022-11-20T06:44:55;1.90;99.90
26342;DHT22;14054;50.108;8.640;2022-11-20T06:47:21;1.90;99.90
26342;DHT22;14054;50.108;8.640;2022-11-20T06:49:47;1.80;99.90
26342;DHT22;14054;50.108;8.640;2022-11-20T06:52:12;1.90;99.90
26342;DHT22;14054;50.108;8.640;2022-11-20T06:54:37;1.90;99.90
26342;DHT22;14054;50.108;8.640;2022-11-20T06:57:03;1.90;99.90
26342;DHT22;14054;50.108;8.640;2022-11-20T06:59:28;1.90;99.90
26342;DHT22;14054;50.108;8.640;2022-11-20T07:01:54;1.90;99.90
26342;DHT22;14054;50.108;8.640;2022-11-20T07:04:19;1.90;99.90
26342;DHT22;14054;50.108;8.640;2022-11-20T07:06:45;1.90;99.90
26342;DHT22;14054;50.108;8.640;2022-11-20T07:09:10;2.00;99.90
26342;DHT22;14054;50.108;8.640;2022-11-20T07:11:36;2.00;99.90
26342;DHT22;14054;50.108;8.640;2022-11-20T07:14:01;2.10;99.90
26342;DHT22;14054;50.108;8.640;2022-11-20T07:16:27;2.10;99.90
26342;DHT22;14054;50.108;8.640;2022-11-20T07:18:52;2.10;99.90
26342;DHT22;14054;50.108;8.640;2022-11-20T07:21:18;2.10;99.90
26342;DHT22;14054;50.108;8.640;2022-11-20T07:23:43;2.00;99.90
26342;DHT22;14054;50.108;8.640;2022-11-20T07:26:10;2.00;99.90
26342;DHT22;14054;50.108;8.640;2022-11-20T07:28:36;2.00;99.90
26342;DHT22;14054;50.108;8.640;2022-11-20T07:31:02;2.10;99.90
26342;DHT22;14054;50.108;8.640;2022-11-20T07:33:28;2.00;99.90
26342;DHT22;14054;50.108;8.640;2022-11-20T07:35:54;2.20;99.90
26342;DHT22;14054;50.108;8.640;2022-11-20T07:38:19;2.20;99.90
26342;DHT22;14054;50.108;8.640;2022-11-20T07:40:45;2.30;99.90
26342;DHT22;14054;50.108;8.640;2022-11-20T07:43:10;2.30;99.90
26342;DHT22;14054;50.108;8.640;2022-11-20T07:45:38;2.30;99.90
26342;DHT22;14054;50.108;8.640;2022-11-20T07:48:04;2.40;99.90
26342;DHT22;14054;50.108;8.640;2022-11-20T07:50:29;2.50;99.90
26342;DHT22;14054;50.108;8.640;2022-11-20T07:53:05;2.50;99.90
26342;DHT22;14054;50.108;8.640;2022-11-20T07:55:31;2.50;99.90
26342;DHT22;14054;50.108;8.640;2022-11-20T07:57:57;2.50;99.90
26342;DHT22;14054;50.108;8.640;2022-11-20T08:00:23;2.60;99.90
26342;DHT22;14054;50.108;8.640;2022-11-20T08:02:48;2.60;99.90
26342;DHT22;14054;50.108;8.640;2022-11-20T08:05:14;2.60;99.90
26342;DHT22;14054;50.108;8.640;2022-11-20T08:07:41;2.60;99.90
26342;DHT22;14054;50.108;8.640;2022-11-20T08:10:08;2.60;99.90
26342;DHT22;14054;50.108;8.640;2022-11-20T08:12:34;2.60;99.90
26342;DHT22;14054;50.108;8.640;2022-11-20T08:15:18;2.60;99.90
26342;DHT22;14054;50.108;8.640;2022-11-20T08:17:44;2.60;99.90
26342;DHT22;14054;50.108;8.640;2022-11-20T08:20:09;2.50;99.90
26342;DHT22;14054;50.108;8.640;2022-11-20T08:22:35;2.50;99.90
26342;DHT22;14054;50.108;8.640;2022-11-20T08:25:01;2.50;99.90
26342;DHT22;14054;50.108;8.640;2022-11-20T08:27:26;2.60;99.90
26342;DHT22;14054;50.108;8.640;2022-11-20T08:29:52;2.60;99.90
26342;DHT22;14054;50.108;8.640;2022-11-20T08:32:19;2.60;99.90
26342;DHT22;14054;50.108;8.640;2022-11-20T08:34:44;2.60;99.90
26342;DHT22;14054;50.108;8.640;2022-11-20T08:37:10;2.70;99.90
26342;DHT22;14054;50.108;8.640;2022-11-20T08:39:35;2.70;99.90
26342;DHT22;14054;50.108;8.640;2022-11-20T08:42:00;2.70;99.90
26342;DHT22;14054;50.108;8.640;2022-11-20T08:44:26;2.70;99.90
26342;DHT22;14054;50.108;8.640;2022-11-20T08:46:51;2.70;99.90
26342;DHT22;14054;50.108;8.640;2022-11-20T08:49:17;2.80;99.90
26342;DHT22;14054;50.108;8.640;2022-11-20T08:51:43;2.80;99.90
26342;DHT22;14054;50.108;8.640;2022-11-20T08:54:09;3.10;99.90
26342;DHT22;14054;50.108;8.640;2022-11-20T08:56:35;3.40;99.90
26342;DHT22;14054;50.108;8.640;2022-11-20T08:59:01;3.60;99.90
26342;DHT22;14054;50.108;8.640;2022-11-20T09:01:27;3.40;99.90
26342;DHT22;14054;50.108;8.640;2022-11-20T09:03:55;3.30;99.90
26342;DHT22;14054;50.108;8.640;2022-11-20T09:06:22;3.20;99.90
26342;DHT22;14054;50.108;8.640;2022-11-20T09:08:52;3.30;99.90
26342;DHT22;14054;50.108;8.640;2022-11-20T09:11:17;3.40;99.90
26342;DHT22;14054;50.108;8.640;2022-11-20T09:13:43;3.50;99.90
26342;DHT22;14054;50.108;8.640;2022-11-20T09:16:09;3.60;99.90
26342;DHT22;14054;50.108;8.640;2022-11-20T09:18:35;3.70;99.90
26342;DHT22;14054;50.108;8.640;2022-11-20T09:21:06;3.80;99.90
26342;DHT22;14054;50.108;8.640;2022-11-20T09:23:33;3.90;99.90
26342;DHT22;14054;50.108;8.640;2022-11-20T09:26:13;3.90;99.90
26342;DHT22;14054;50.108;8.640;2022-11-20T09:28:39;3.90;99.90
26342;DHT22;14054;50.108;8.640;2022-11-20T09:31:08;3.80;99.90
26342;DHT22;14054;50.108;8.640;2022-11-20T09:33:35;3.90;99.90
26342;DHT22;14054;50.108;8.640;2022-11-20T09:36:00;3.90;99.90
26342;DHT22;14054;50.108;8.640;2022-11-20T09:38:26;4.00;99.90
26342;DHT22;14054;50.108;8.640;2022-11-20T09:41:04;4.10;99.90
26342;DHT22;14054;50.108;8.640;2022-11-20T09:43:50;4.20;99.90
26342;DHT22;14054;50.108;8.640;2022-11-20T09:46:32;4.30;99.90
26342;DHT22;14054;50.108;8.640;2022-11-20T09:49:30;4.30;99.90
26342;DHT22;14054;50.108;8.640;2022-11-20T09:52:00;4.50;99.90
26342;DHT22;14054;50.108;8.640;2022-11-20T09:54:35;4.70;99.90
26342;DHT22;14054;50.108;8.640;2022-11-20T09:57:05;4.60;99.90
26342;DHT22;14054;50.108;8.640;2022-11-20T10:00:09;4.40;99.90
26342;DHT22;14054;50.108;8.640;2022-11-20T10:03:06;4.20;99.90
26342;DHT22;14054;50.108;8.640;2022-11-20T10:05:46;4.00;99.90
26342;DHT22;14054;50.108;8.640;2022-11-20T10:08:25;3.90;99.90
26342;DHT22;14054;50.108;8.640;2022-11-20T10:11:06;4.00;99.90
26342;DHT22;14054;50.108;8.640;2022-11-20T10:19:34;4.00;99.90
26342;DHT22;14054;50.108;8.640;2022-11-20T10:24:56;3.90;99.90
26342;DHT22;14054;50.108;8.640;2022-11-20T10:28:30;4.10;99.90
26342;DHT22;14054;50.108;8.640;2022-11-20T10:30:28;4.10;99.90
26342;DHT22;14054;50.108;8.640;2022-11-20T10:33:19;4.10;99.90
26342;DHT22;14054;50.108;8.640;2022-11-20T10:38:36;4.10;99.90
26342;DHT22;14054;50.108;8.640;2022-11-20T10:41:04;4.10;99.90
26342;DHT22;14054;50.108;8.640;2022-11-20T10:46:44;4.00;99.90
26342;DHT22;14054;50.108;8.640;2022-11-20T10:49:15;4.00;99.90
26342;DHT22;14054;50.108;8.640;2022-11-20T10:51:46;4.00;99.90
26342;DHT22;14054;50.108;8.640;2022-11-20T10:54:19;4.10;99.90
26342;DHT22;14054;50.108;8.640;2022-11-20T10:56:52;4.20;99.90
26342;DHT22;14054;50.108;8.640;2022-11-20T10:59:35;4.30;99.90
26342;DHT22;14054;50.108;8.640;2022-11-20T11:02:23;4.30;99.90
26342;DHT22;14054;50.108;8.640;2022-11-20T11:04:51;4.30;99.90
26342;DHT22;14054;50.108;8.640;2022-11-20T11:09:52;4.30;99.90
26342;DHT22;14054;50.108;8.640;2022-11-20T11:12:20;4.50;99.90
26342;DHT22;14054;50.108;8.640;2022-11-20T11:14:51;4.50;99.90
26342;DHT22;14054;50.108;8.640;2022-11-20T11:20:17;4.50;99.90
26342;DHT22;14054;50.108;8.640;2022-11-20T11:22:45;4.60;99.90
26342;DHT22;14054;50.108;8.640;2022-11-20T11:25:24;4.90;99.90
26342;DHT22;14054;50.108;8.640;2022-11-20T11:27:51;5.10;99.90
26342;DHT22;14054;50.108;8.640;2022-11-20T11:30:19;5.00;99.90
26342;DHT22;14054;50.108;8.640;2022-11-20T11:32:45;5.00;99.90
26342;DHT22;14054;50.108;8.640;2022-11-20T11:35:23;4.90;99.90
26342;DHT22;14054;50.108;8.640;2022-11-20T11:37:50;4.90;99.90
26342;DHT22;14054;50.108;8.640;2022-11-20T11:40:18;4.80;99.90
26342;DHT22;14054;50.108;8.640;2022-11-20T11:43:02;4.90;99.90
26342;DHT22;14054;50.108;8.640;2022-11-20T11:45:29;4.90;99.90
26342;DHT22;14054;50.108;8.640;2022-11-20T11:47:58;5.00;99.90
26342;DHT22;14054;50.108;8.640;2022-11-20T11:50:27;5.10;99.90
26342;DHT22;14054;50.108;8.640;2022-11-20T11:53:02;5.00;99.90
26342;DHT22;14054;50.108;8.640;2022-11-20T11:55:46;5.10;99.90
26342;DHT22;14054;50.108;8.640;2022-11-20T11:58:16;5.20;99.90
26342;DHT22;14054;50.108;8.640;2022-11-20T12:00:56;5.40;99.90
26342;DHT22;14054;50.108;8.640;2022-11-20T12:03:36;5.50;99.90
26342;DHT22;14054;50.108;8.640;2022-11-20T12:06:10;5.90;99.90
26342;DHT22;14054;50.108;8.640;2022-11-20T12:11:23;6.20;99.90
26342;DHT22;14054;50.108;8.640;2022-11-20T12:14:09;6.30;99.90
26342;DHT22;14054;50.108;8.640;2022-11-20T12:16:39;6.40;99.90
26342;DHT22;14054;50.108;8.640;2022-11-20T12:19:11;6.00;99.90
26342;DHT22;14054;50.108;8.640;2022-11-20T12:21:51;6.00;99.90
26342;DHT22;14054;50.108;8.640;2022-11-20T12:27:24;5.40;99.90
26342;DHT22;14054;50.108;8.640;2022-11-20T12:30:11;5.40;99.90
26342;DHT22;14054;50.108;8.640;2022-11-20T12:32:42;5.40;99.90
26342;DHT22;14054;50.108;8.640;2022-11-20T12:40:45;5.40;99.90
26342;DHT22;14054;50.108;8.640;2022-11-20T12:43:25;5.40;99.90
26342;DHT22;14054;50.108;8.640;2022-11-20T12:46:47;5.50;99.90
26342;DHT22;14054;50.108;8.640;2022-11-20T12:49:27;5.40;99.90
26342;DHT22;14054;50.108;8.640;2022-11-20T12:52:20;5.30;99.90
26342;DHT22;14054;50.108;8.640;2022-11-20T12:57:55;5.30;99.90
26342;DHT22;14054;50.108;8.640;2022-11-20T13:00:23;5.20;99.90
26342;DHT22;14054;50.108;8.640;2022-11-20T13:03:22;5.20;99.90
26342;DHT22;14054;50.108;8.640;2022-11-20T13:08:53;5.20;99.90
26342;DHT22;14054;50.108;8.640;2022-11-20T13:11:37;5.10;99.90
26342;DHT22;14054;50.108;8.640;2022-11-20T13:14:12;5.10;99.90
26342;DHT22;14054;50.108;8.640;2022-11-20T13:17:10;5.10;99.90
26342;DHT22;14054;50.108;8.640;2022-11-20T13:19:37;5.00;99.90
26342;DHT22;14054;50.108;8.640;2022-11-20T13:22:02;4.90;99.90
26342;DHT22;14054;50.108;8.640;2022-11-20T13:24:30;4.90;99.90
26342;DHT22;14054;50.108;8.640;2022-11-20T13:29:26;5.00;99.90
26342;DHT22;14054;50.108;8.640;2022-11-20T13:32:23;5.00;99.90
26342;DHT22;14054;50.108;8.640;2022-11-20T13:34:54;4.90;99.90
26342;DHT22;14054;50.108;8.640;2022-11-20T13:37:29;4.90;99.90
26342;DHT22;14054;50.108;8.640;2022-11-20T13:40:25;4.90;99.90
26342;DHT22;14054;50.108;8.640;2022-11-20T13:45:29;5.00;99.90
26342;DHT22;14054;50.108;8.640;2022-11-20T13:47:57;5.00;99.90
26342;DHT22;14054;50.108;8.640;2022-11-20T13:50:46;5.00;99.90
26342;DHT22;14054;50.108;8.640;2022-11-20T13:53:42;5.00;99.90
26342;DHT22;14054;50.108;8.640;2022-11-20T13:56:40;5.00;99.90
26342;DHT22;14054;50.108;8.640;2022-11-20T13:59:42;5.00;99.90
26342;DHT22;14054;50.108;8.640;2022-11-20T14:02:16;4.90;99.90
26342;DHT22;14054;50.108;8.640;2022-11-20T14:04:45;4.90;99.90
26342;DHT22;14054;50.108;8.640;2022-11-20T14:07:12;4.90;99.90
26342;DHT22;14054;50.108;8.640;2022-11-20T14:09:37;4.90;99.90
26342;DHT22;14054;50.108;8.640;2022-11-20T14:12:12;5.00;99.90
26342;DHT22;14054;50.108;8.640;2022-11-20T14:14:51;5.00;99.90
26342;DHT22;14054;50.108;8.640;2022-11-20T14:17:23;5.00;99.90
26342;DHT22;14054;50.108;8.640;2022-11-20T14:19:51;5.00;99.90
26342;DHT22;14054;50.108;8.640;2022-11-20T14:22:22;5.00;99.90
26342;DHT22;14054;50.108;8.640;2022-11-20T14:25:01;5.00;99.90
26342;DHT22;14054;50.108;8.640;2022-11-20T14:27:27;5.10;99.90
26342;DHT22;14054;50.108;8.640;2022-11-20T14:29:52;5.10;99.90
26342;DHT22;14054;50.108;8.640;2022-11-20T14:32:20;5.10;99.90
26342;DHT22;14054;50.108;8.640;2022-11-20T14:34:48;5.10;99.90
26342;DHT22;14054;50.108;8.640;2022-11-20T14:37:24;5.10;99.90
26342;DHT22;14054;50.108;8.640;2022-11-20T14:39:55;5.10;99.90
26342;DHT22;14054;50.108;8.640;2022-11-20T14:42:23;5.10;99.90
26342;DHT22;14054;50.108;8.640;2022-11-20T14:44:50;5.10;99.90
26342;DHT22;14054;50.108;8.640;2022-11-20T14:47:29;5.10;99.90
26342;DHT22;14054;50.108;8.640;2022-11-20T14:49:55;5.10;99.90
26342;DHT22;14054;50.108;8.640;2022-11-20T14:52:26;5.10;99.90
26342;DHT22;14054;50.108;8.640;2022-11-20T14:54:55;5.10;99.90
26342;DHT22;14054;50.108;8.640;2022-11-20T14:57:32;5.20;99.90
26342;DHT22;14054;50.108;8.640;2022-11-20T15:02:33;5.10;99.90
26342;DHT22;14054;50.108;8.640;2022-11-20T15:05:00;5.10;99.90
26342;DHT22;14054;50.108;8.640;2022-11-20T15:07:35;5.10;99.90
26342;DHT22;14054;50.108;8.640;2022-11-20T15:10:06;5.00;99.90
26342;DHT22;14054;50.108;8.640;2022-11-20T15:12:34;5.10;99.90
26342;DHT22;14054;50.108;8.640;2022-11-20T15:15:01;5.10;99.90
26342;DHT22;14054;50.108;8.640;2022-11-20T15:17:28;5.00;99.90
26342;DHT22;14054;50.108;8.640;2022-11-20T15:19:54;5.10;99.90
26342;DHT22;14054;50.108;8.640;2022-11-20T15:22:20;5.10;99.90
26342;DHT22;14054;50.108;8.640;2022-11-20T15:24:45;5.10;99.90
26342;DHT22;14054;50.108;8.640;2022-11-20T15:27:11;5.20;99.90
26342;DHT22;14054;50.108;8.640;2022-11-20T15:29:37;5.20;99.90
26342;DHT22;14054;50.108;8.640;2022-11-20T15:32:03;5.10;99.90
26342;DHT22;14054;50.108;8.640;2022-11-20T15:34:28;5.10;99.90
26342;DHT22;14054;50.108;8.640;2022-11-20T15:36:54;5.10;99.90
26342;DHT22;14054;50.108;8.640;2022-11-20T15:39:20;5.10;99.90
26342;DHT22;14054;50.108;8.640;2022-11-20T15:41:46;5.10;99.90
26342;DHT22;14054;50.108;8.640;2022-11-20T15:44:11;5.10;99.90
26342;DHT22;14054;50.108;8.640;2022-11-20T15:46:39;5.10;99.90
26342;DHT22;14054;50.108;8.640;2022-11-20T15:49:12;5.10;99.90
26342;DHT22;14054;50.108;8.640;2022-11-20T15:51:39;5.20;99.90
26342;DHT22;14054;50.108;8.640;2022-11-20T15:54:14;5.10;99.90
26342;DHT22;14054;50.108;8.640;2022-11-20T15:56:40;5.10;99.90
26342;DHT22;14054;50.108;8.640;2022-11-20T15:59:05;5.10;99.90
26342;DHT22;14054;50.108;8.640;2022-11-20T16:01:31;5.10;99.90
26342;DHT22;14054;50.108;8.640;2022-11-20T16:03:56;5.10;99.90
26342;DHT22;14054;50.108;8.640;2022-11-20T16:06:22;5.10;99.90
26342;DHT22;14054;50.108;8.640;2022-11-20T16:08:47;5.10;99.90
26342;DHT22;14054;50.108;8.640;2022-11-20T16:11:15;5.10;99.90
26342;DHT22;14054;50.108;8.640;2022-11-20T16:13:41;5.10;99.90
26342;DHT22;14054;50.108;8.640;2022-11-20T16:16:29;5.10;99.90
26342;DHT22;14054;50.108;8.640;2022-11-20T16:18:56;5.10;99.90
26342;DHT22;14054;50.108;8.640;2022-11-20T16:21:22;5.10;99.90
26342;DHT22;14054;50.108;8.640;2022-11-20T16:23:57;5.10;99.90
26342;DHT22;14054;50.108;8.640;2022-11-20T16:26:23;5.10;99.90
26342;DHT22;14054;50.108;8.640;2022-11-20T16:28:48;5.00;99.90
26342;DHT22;14054;50.108;8.640;2022-11-20T16:31:16;5.10;99.90
26342;DHT22;14054;50.108;8.640;2022-11-20T16:33:42;5.10;99.90
26342;DHT22;14054;50.108;8.640;2022-11-20T16:36:13;5.10;99.90
26342;DHT22;14054;50.108;8.640;2022-11-20T16:38:39;5.10;99.90
26342;DHT22;14054;50.108;8.640;2022-11-20T16:41:05;5.10;99.90
26342;DHT22;14054;50.108;8.640;2022-11-20T16:43:30;5.10;99.90
26342;DHT22;14054;50.108;8.640;2022-11-20T16:45:56;5.10;99.90
26342;DHT22;14054;50.108;8.640;2022-11-20T16:48:22;5.10;99.90